sensor_id;sensor_type;location;lat;lon;timestamp;P1;durP1;ratioP1;P2;durP2;ratioP2
71196;SDS011;58918;51.652;4.864;2024-02-21T00:02:22;3.78;;;1.50;;
71196;SDS011;58918;51.652;4.864;2024-02-21T00:04:49;5.90;;;1.85;;
71196;SDS011;58918;51.652;4.864;2024-02-21T00:07:17;5.00;;;1.48;;
71196;SDS011;58918;51.652;4.864;2024-02-21T00:09:44;4.72;;;1.70;;
71196;SDS011;58918;51.652;4.864;2024-02-21T00:12:11;3.55;;;1.20;;
71196;SDS011;58918;51.652;4.864;2024-02-21T00:14:40;5.03;;;1.67;;
71196;SDS011;58918;51.652;4.864;2024-02-21T00:17:07;5.47;;;1.73;;
71196;SDS011;58918;51.652;4.864;2024-02-21T00:19:34;6.57;;;2.15;;
71196;SDS011;58918;51.652;4.864;2024-02-21T00:22:02;5.53;;;1.70;;
71196;SDS011;58918;51.652;4.864;2024-02-21T00:24:29;7.20;;;1.85;;
71196;SDS011;58918;51.652;4.864;2024-02-21T00:26:56;6.55;;;1.40;;
71196;SDS011;58918;51.652;4.864;2024-02-21T00:29:24;5.22;;;1.58;;
71196;SDS011;58918;51.652;4.864;2024-02-21T00:31:51;8.25;;;1.85;;
71196;SDS011;58918;51.652;4.864;2024-02-21T00:34:19;5.07;;;1.65;;
71196;SDS011;58918;51.652;4.864;2024-02-21T00:36:46;3.78;;;1.48;;
71196;SDS011;58918;51.652;4.864;2024-02-21T00:39:14;4.82;;;1.73;;
71196;SDS011;58918;51.652;4.864;2024-02-21T00:41:41;4.28;;;1.60;;
71196;SDS011;58918;51.652;4.864;2024-02-21T00:44:08;7.65;;;1.65;;
71196;SDS011;58918;51.652;4.864;2024-02-21T00:46:36;4.57;;;1.83;;
71196;SDS011;58918;51.652;4.864;2024-02-21T00:49:05;6.47;;;1.50;;
71196;SDS011;58918;51.652;4.864;2024-02-21T00:51:33;5.20;;;1.70;;
71196;SDS011;58918;51.652;4.864;2024-02-21T00:54:00;6.10;;;1.42;;
71196;SDS011;58918;51.652;4.864;2024-02-21T00:56:28;4.78;;;1.80;;
71196;SDS011;58918;51.652;4.864;2024-02-21T00:58:56;4.82;;;1.85;;
71196;SDS011;58918;51.652;4.864;2024-02-21T01:01:26;4.88;;;1.25;;
71196;SDS011;58918;51.652;4.864;2024-02-21T01:03:53;4.10;;;1.50;;
71196;SDS011;58918;51.652;4.864;2024-02-21T01:06:21;4.28;;;1.33;;
71196;SDS011;58918;51.652;4.864;2024-02-21T01:08:48;4.30;;;1.38;;
71196;SDS011;58918;51.652;4.864;2024-02-21T01:11:16;4.70;;;1.60;;
71196;SDS011;58918;51.652;4.864;2024-02-21T01:13:43;6.72;;;1.50;;
71196;SDS011;58918;51.652;4.864;2024-02-21T01:16:11;5.35;;;1.63;;
71196;SDS011;58918;51.652;4.864;2024-02-21T01:18:38;3.40;;;1.45;;
71196;SDS011;58918;51.652;4.864;2024-02-21T01:21:06;3.53;;;1.52;;
71196;SDS011;58918;51.652;4.864;2024-02-21T01:23:34;6.28;;;2.15;;
71196;SDS011;58918;51.652;4.864;2024-02-21T01:26:02;6.07;;;1.60;;
71196;SDS011;58918;51.652;4.864;2024-02-21T01:28:30;5.35;;;1.70;;
71196;SDS011;58918;51.652;4.864;2024-02-21T01:30:57;4.85;;;1.42;;
71196;SDS011;58918;51.652;4.864;2024-02-21T01:33:24;3.70;;;1.23;;
71196;SDS011;58918;51.652;4.864;2024-02-21T01:35:51;4.78;;;1.42;;
71196;SDS011;58918;51.652;4.864;2024-02-21T01:38:19;4.20;;;1.33;;
71196;SDS011;58918;51.652;4.864;2024-02-21T01:40:47;5.93;;;1.75;;
71196;SDS011;58918;51.652;4.864;2024-02-21T01:43:17;3.97;;;1.40;;
71196;SDS011;58918;51.652;4.864;2024-02-21T01:45:46;4.22;;;1.48;;
71196;SDS011;58918;51.652;4.864;2024-02-21T01:48:15;4.70;;;1.60;;
71196;SDS011;58918;51.652;4.864;2024-02-21T01:50:44;4.85;;;1.48;;
71196;SDS011;58918;51.652;4.864;2024-02-21T01:53:12;3.88;;;1.33;;
71196;SDS011;58918;51.652;4.864;2024-02-21T01:55:45;6.93;;;1.60;;
71196;SDS011;58918;51.652;4.864;2024-02-21T01:58:13;6.13;;;1.27;;
71196;SDS011;58918;51.652;4.864;2024-02-21T02:00:41;4.25;;;1.17;;
71196;SDS011;58918;51.652;4.864;2024-02-21T02:03:10;4.95;;;1.27;;
71196;SDS011;58918;51.652;4.864;2024-02-21T02:05:46;3.95;;;1.55;;
71196;SDS011;58918;51.652;4.864;2024-02-21T02:08:14;3.78;;;1.25;;
71196;SDS011;58918;51.652;4.864;2024-02-21T02:10:42;5.00;;;1.20;;
71196;SDS011;58918;51.652;4.864;2024-02-21T02:13:10;3.75;;;1.30;;
71196;SDS011;58918;51.652;4.864;2024-02-21T02:15:41;4.47;;;1.27;;
71196;SDS011;58918;51.652;4.864;2024-02-21T02:18:09;5.13;;;1.50;;
71196;SDS011;58918;51.652;4.864;2024-02-21T02:20:37;4.57;;;1.15;;
71196;SDS011;58918;51.652;4.864;2024-02-21T02:23:08;3.28;;;1.30;;
71196;SDS011;58918;51.652;4.864;2024-02-21T02:25:37;3.03;;;1.30;;
71196;SDS011;58918;51.652;4.864;2024-02-21T02:28:05;3.00;;;1.20;;
71196;SDS011;58918;51.652;4.864;2024-02-21T02:30:33;4.05;;;1.50;;
71196;SDS011;58918;51.652;4.864;2024-02-21T02:33:01;4.60;;;1.23;;
71196;SDS011;58918;51.652;4.864;2024-02-21T02:35:28;3.58;;;1.27;;
71196;SDS011;58918;51.652;4.864;2024-02-21T02:37:56;3.83;;;1.40;;
71196;SDS011;58918;51.652;4.864;2024-02-21T02:40:23;3.90;;;1.27;;
71196;SDS011;58918;51.652;4.864;2024-02-21T02:42:51;3.10;;;1.25;;
71196;SDS011;58918;51.652;4.864;2024-02-21T02:45:21;5.55;;;1.70;;
71196;SDS011;58918;51.652;4.864;2024-02-21T02:47:53;3.88;;;1.13;;
71196;SDS011;58918;51.652;4.864;2024-02-21T02:50:20;3.80;;;1.27;;
71196;SDS011;58918;51.652;4.864;2024-02-21T02:52:48;4.65;;;1.40;;
71196;SDS011;58918;51.652;4.864;2024-02-21T02:55:15;4.20;;;1.10;;
71196;SDS011;58918;51.652;4.864;2024-02-21T02:57:42;3.60;;;1.30;;
71196;SDS011;58918;51.652;4.864;2024-02-21T03:00:10;4.47;;;1.10;;
71196;SDS011;58918;51.652;4.864;2024-02-21T03:02:38;4.45;;;1.10;;
71196;SDS011;58918;51.652;4.864;2024-02-21T03:05:15;3.72;;;1.13;;
71196;SDS011;58918;51.652;4.864;2024-02-21T03:07:43;3.50;;;1.50;;
71196;SDS011;58918;51.652;4.864;2024-02-21T03:10:10;3.03;;;1.13;;
71196;SDS011;58918;51.652;4.864;2024-02-21T03:12:38;4.13;;;1.30;;
71196;SDS011;58918;51.652;4.864;2024-02-21T03:15:05;4.68;;;1.20;;
71196;SDS011;58918;51.652;4.864;2024-02-21T03:17:33;3.20;;;1.00;;
71196;SDS011;58918;51.652;4.864;2024-02-21T03:20:03;3.88;;;1.30;;
71196;SDS011;58918;51.652;4.864;2024-02-21T03:27:27;4.60;;;1.00;;
71196;SDS011;58918;51.652;4.864;2024-02-21T03:29:54;2.92;;;1.10;;
71196;SDS011;58918;51.652;4.864;2024-02-21T03:32:21;3.65;;;1.20;;
71196;SDS011;58918;51.652;4.864;2024-02-21T03:34:49;3.30;;;1.20;;
71196;SDS011;58918;51.652;4.864;2024-02-21T03:37:16;6.03;;;1.25;;
71196;SDS011;58918;51.652;4.864;2024-02-21T03:39:43;8.35;;;1.55;;
71196;SDS011;58918;51.652;4.864;2024-02-21T03:42:11;2.97;;;1.08;;
71196;SDS011;58918;51.652;4.864;2024-02-21T03:44:38;3.55;;;1.40;;
71196;SDS011;58918;51.652;4.864;2024-02-21T03:47:05;4.00;;;1.10;;
71196;SDS011;58918;51.652;4.864;2024-02-21T03:49:36;3.95;;;1.38;;
71196;SDS011;58918;51.652;4.864;2024-02-21T03:52:03;3.85;;;1.27;;
71196;SDS011;58918;51.652;4.864;2024-02-21T03:54:31;5.25;;;0.85;;
71196;SDS011;58918;51.652;4.864;2024-02-21T03:56:58;3.08;;;1.10;;
71196;SDS011;58918;51.652;4.864;2024-02-21T03:59:25;2.47;;;0.88;;
71196;SDS011;58918;51.652;4.864;2024-02-21T04:01:52;5.30;;;1.20;;
71196;SDS011;58918;51.652;4.864;2024-02-21T04:04:20;5.20;;;1.40;;
71196;SDS011;58918;51.652;4.864;2024-02-21T04:06:48;3.05;;;1.00;;
71196;SDS011;58918;51.652;4.864;2024-02-21T04:09:15;3.15;;;1.10;;
71196;SDS011;58918;51.652;4.864;2024-02-21T04:11:43;3.97;;;1.10;;
71196;SDS011;58918;51.652;4.864;2024-02-21T04:14:11;2.97;;;1.15;;
71196;SDS011;58918;51.652;4.864;2024-02-21T04:16:38;3.17;;;1.20;;
71196;SDS011;58918;51.652;4.864;2024-02-21T04:19:06;3.72;;;1.10;;
71196;SDS011;58918;51.652;4.864;2024-02-21T04:21:34;3.13;;;1.00;;
71196;SDS011;58918;51.652;4.864;2024-02-21T04:24:02;5.32;;;1.35;;
71196;SDS011;58918;51.652;4.864;2024-02-21T04:26:32;2.75;;;1.08;;
71196;SDS011;58918;51.652;4.864;2024-02-21T04:28:59;3.00;;;0.93;;
71196;SDS011;58918;51.652;4.864;2024-02-21T04:31:27;5.30;;;1.02;;
71196;SDS011;58918;51.652;4.864;2024-02-21T04:33:56;3.92;;;1.30;;
71196;SDS011;58918;51.652;4.864;2024-02-21T04:36:23;2.95;;;1.20;;
71196;SDS011;58918;51.652;4.864;2024-02-21T04:38:51;3.28;;;1.02;;
71196;SDS011;58918;51.652;4.864;2024-02-21T04:41:18;5.22;;;1.35;;
71196;SDS011;58918;51.652;4.864;2024-02-21T04:43:46;15.15;;;1.55;;
71196;SDS011;58918;51.652;4.864;2024-02-21T04:46:14;10.40;;;1.45;;
71196;SDS011;58918;51.652;4.864;2024-02-21T04:48:42;13.02;;;1.55;;
71196;SDS011;58918;51.652;4.864;2024-02-21T04:51:11;7.35;;;1.23;;
71196;SDS011;58918;51.652;4.864;2024-02-21T04:53:39;6.70;;;1.48;;
71196;SDS011;58918;51.652;4.864;2024-02-21T04:56:07;11.32;;;1.23;;
71196;SDS011;58918;51.652;4.864;2024-02-21T04:58:37;8.32;;;1.20;;
71196;SDS011;58918;51.652;4.864;2024-02-21T05:01:05;6.05;;;1.10;;
71196;SDS011;58918;51.652;4.864;2024-02-21T05:03:34;2.80;;;1.00;;
71196;SDS011;58918;51.652;4.864;2024-02-21T05:06:07;4.78;;;1.05;;
71196;SDS011;58918;51.652;4.864;2024-02-21T05:09:12;4.65;;;1.17;;
71196;SDS011;58918;51.652;4.864;2024-02-21T05:11:39;6.35;;;1.58;;
71196;SDS011;58918;51.652;4.864;2024-02-21T05:14:06;6.57;;;1.33;;
71196;SDS011;58918;51.652;4.864;2024-02-21T05:16:34;6.13;;;1.50;;
71196;SDS011;58918;51.652;4.864;2024-02-21T05:19:01;2.70;;;1.05;;
71196;SDS011;58918;51.652;4.864;2024-02-21T05:21:30;8.50;;;1.30;;
71196;SDS011;58918;51.652;4.864;2024-02-21T05:23:58;4.38;;;1.27;;
71196;SDS011;58918;51.652;4.864;2024-02-21T05:26:26;5.25;;;1.15;;
71196;SDS011;58918;51.652;4.864;2024-02-21T05:28:54;5.10;;;1.08;;
71196;SDS011;58918;51.652;4.864;2024-02-21T05:31:21;4.47;;;1.35;;
71196;SDS011;58918;51.652;4.864;2024-02-21T05:33:48;4.60;;;1.40;;
71196;SDS011;58918;51.652;4.864;2024-02-21T05:36:16;6.97;;;1.15;;
71196;SDS011;58918;51.652;4.864;2024-02-21T05:38:43;2.83;;;1.08;;
71196;SDS011;58918;51.652;4.864;2024-02-21T05:41:10;6.15;;;1.33;;
71196;SDS011;58918;51.652;4.864;2024-02-21T05:43:38;4.85;;;1.02;;
71196;SDS011;58918;51.652;4.864;2024-02-21T05:46:05;6.90;;;1.58;;
71196;SDS011;58918;51.652;4.864;2024-02-21T05:48:33;3.00;;;0.90;;
71196;SDS011;58918;51.652;4.864;2024-02-21T05:51:05;3.10;;;1.10;;
71196;SDS011;58918;51.652;4.864;2024-02-21T05:53:32;5.95;;;1.55;;
71196;SDS011;58918;51.652;4.864;2024-02-21T05:55:59;5.05;;;1.30;;
71196;SDS011;58918;51.652;4.864;2024-02-21T05:58:27;3.60;;;1.17;;
71196;SDS011;58918;51.652;4.864;2024-02-21T06:00:55;4.13;;;1.15;;
71196;SDS011;58918;51.652;4.864;2024-02-21T06:03:23;4.78;;;1.30;;
71196;SDS011;58918;51.652;4.864;2024-02-21T06:05:50;4.18;;;1.30;;
71196;SDS011;58918;51.652;4.864;2024-02-21T06:08:17;4.50;;;1.05;;
71196;SDS011;58918;51.652;4.864;2024-02-21T06:10:45;3.08;;;0.93;;
71196;SDS011;58918;51.652;4.864;2024-02-21T06:13:13;3.05;;;1.08;;
71196;SDS011;58918;51.652;4.864;2024-02-21T06:15:41;3.40;;;1.00;;
71196;SDS011;58918;51.652;4.864;2024-02-21T06:18:08;6.53;;;1.30;;
71196;SDS011;58918;51.652;4.864;2024-02-21T06:20:35;4.47;;;1.08;;
71196;SDS011;58918;51.652;4.864;2024-02-21T06:23:05;4.70;;;1.80;;
71196;SDS011;58918;51.652;4.864;2024-02-21T06:25:34;10.10;;;2.00;;
71196;SDS011;58918;51.652;4.864;2024-02-21T06:28:02;10.27;;;2.72;;
71196;SDS011;58918;51.652;4.864;2024-02-21T06:30:29;14.50;;;3.05;;
71196;SDS011;58918;51.652;4.864;2024-02-21T06:32:57;21.70;;;3.25;;
71196;SDS011;58918;51.652;4.864;2024-02-21T06:35:25;16.02;;;2.78;;
71196;SDS011;58918;51.652;4.864;2024-02-21T06:37:53;13.30;;;2.47;;
71196;SDS011;58918;51.652;4.864;2024-02-21T06:40:21;15.48;;;2.83;;
71196;SDS011;58918;51.652;4.864;2024-02-21T06:42:49;6.82;;;2.25;;
71196;SDS011;58918;51.652;4.864;2024-02-21T06:45:17;10.63;;;2.53;;
71196;SDS011;58918;51.652;4.864;2024-02-21T06:47:44;9.43;;;2.30;;
71196;SDS011;58918;51.652;4.864;2024-02-21T06:50:11;11.30;;;3.20;;
71196;SDS011;58918;51.652;4.864;2024-02-21T06:52:39;13.00;;;2.80;;
71196;SDS011;58918;51.652;4.864;2024-02-21T06:55:07;8.68;;;2.13;;
71196;SDS011;58918;51.652;4.864;2024-02-21T06:57:34;12.77;;;2.63;;
71196;SDS011;58918;51.652;4.864;2024-02-21T07:00:01;8.18;;;2.03;;
71196;SDS011;58918;51.652;4.864;2024-02-21T07:02:29;10.07;;;2.25;;
71196;SDS011;58918;51.652;4.864;2024-02-21T07:04:56;12.30;;;2.22;;
71196;SDS011;58918;51.652;4.864;2024-02-21T07:07:23;7.93;;;2.08;;
71196;SDS011;58918;51.652;4.864;2024-02-21T07:09:51;9.07;;;2.00;;
71196;SDS011;58918;51.652;4.864;2024-02-21T07:12:20;10.00;;;1.95;;
71196;SDS011;58918;51.652;4.864;2024-02-21T07:14:47;9.90;;;1.95;;
71196;SDS011;58918;51.652;4.864;2024-02-21T07:17:14;11.20;;;2.35;;
71196;SDS011;58918;51.652;4.864;2024-02-21T07:19:41;8.80;;;2.33;;
71196;SDS011;58918;51.652;4.864;2024-02-21T07:22:09;7.63;;;2.00;;
71196;SDS011;58918;51.652;4.864;2024-02-21T07:24:36;10.38;;;2.63;;
71196;SDS011;58918;51.652;4.864;2024-02-21T07:27:04;9.05;;;1.92;;
71196;SDS011;58918;51.652;4.864;2024-02-21T07:29:31;6.45;;;1.73;;
71196;SDS011;58918;51.652;4.864;2024-02-21T07:31:59;6.28;;;1.98;;
71196;SDS011;58918;51.652;4.864;2024-02-21T07:34:26;8.98;;;2.83;;
71196;SDS011;58918;51.652;4.864;2024-02-21T07:36:54;9.20;;;2.10;;
71196;SDS011;58918;51.652;4.864;2024-02-21T07:39:21;6.07;;;2.22;;
71196;SDS011;58918;51.652;4.864;2024-02-21T07:41:48;7.28;;;1.80;;
71196;SDS011;58918;51.652;4.864;2024-02-21T07:44:15;8.25;;;2.15;;
71196;SDS011;58918;51.652;4.864;2024-02-21T07:46:43;9.05;;;2.08;;
71196;SDS011;58918;51.652;4.864;2024-02-21T07:49:10;6.28;;;2.47;;
71196;SDS011;58918;51.652;4.864;2024-02-21T07:51:37;8.40;;;2.50;;
71196;SDS011;58918;51.652;4.864;2024-02-21T07:54:05;7.18;;;1.77;;
71196;SDS011;58918;51.652;4.864;2024-02-21T07:56:34;8.90;;;2.33;;
71196;SDS011;58918;51.652;4.864;2024-02-21T07:59:02;8.63;;;2.92;;
71196;SDS011;58918;51.652;4.864;2024-02-21T08:01:29;9.40;;;1.92;;
71196;SDS011;58918;51.652;4.864;2024-02-21T08:03:56;9.25;;;2.13;;
71196;SDS011;58918;51.652;4.864;2024-02-21T08:06:25;8.40;;;1.95;;
71196;SDS011;58918;51.652;4.864;2024-02-21T08:08:52;12.27;;;2.40;;
71196;SDS011;58918;51.652;4.864;2024-02-21T08:11:20;6.63;;;1.95;;
71196;SDS011;58918;51.652;4.864;2024-02-21T08:13:47;6.57;;;1.67;;
71196;SDS011;58918;51.652;4.864;2024-02-21T08:16:14;6.80;;;2.20;;
71196;SDS011;58918;51.652;4.864;2024-02-21T08:18:43;7.20;;;2.03;;
71196;SDS011;58918;51.652;4.864;2024-02-21T08:23:38;5.63;;;1.80;;
71196;SDS011;58918;51.652;4.864;2024-02-21T08:26:05;5.65;;;1.70;;
71196;SDS011;58918;51.652;4.864;2024-02-21T08:28:33;7.93;;;1.95;;
71196;SDS011;58918;51.652;4.864;2024-02-21T08:31:00;7.03;;;1.90;;
71196;SDS011;58918;51.652;4.864;2024-02-21T08:33:27;7.50;;;2.00;;
71196;SDS011;58918;51.652;4.864;2024-02-21T08:35:56;7.50;;;1.80;;
71196;SDS011;58918;51.652;4.864;2024-02-21T08:38:23;6.47;;;1.88;;
71196;SDS011;58918;51.652;4.864;2024-02-21T08:40:51;8.32;;;2.88;;
71196;SDS011;58918;51.652;4.864;2024-02-21T08:43:19;7.35;;;1.77;;
71196;SDS011;58918;51.652;4.864;2024-02-21T08:45:46;6.57;;;1.77;;
71196;SDS011;58918;51.652;4.864;2024-02-21T08:48:13;6.07;;;2.13;;
71196;SDS011;58918;51.652;4.864;2024-02-21T08:50:41;5.60;;;1.75;;
71196;SDS011;58918;51.652;4.864;2024-02-21T08:53:08;4.82;;;1.70;;
71196;SDS011;58918;51.652;4.864;2024-02-21T08:55:36;6.80;;;1.70;;
71196;SDS011;58918;51.652;4.864;2024-02-21T08:58:04;6.47;;;1.92;;
71196;SDS011;58918;51.652;4.864;2024-02-21T09:00:31;7.35;;;1.95;;
71196;SDS011;58918;51.652;4.864;2024-02-21T09:02:59;4.43;;;1.55;;
71196;SDS011;58918;51.652;4.864;2024-02-21T09:05:26;7.97;;;1.73;;
71196;SDS011;58918;51.652;4.864;2024-02-21T09:07:53;8.98;;;2.22;;
71196;SDS011;58918;51.652;4.864;2024-02-21T09:10:21;5.63;;;1.52;;
71196;SDS011;58918;51.652;4.864;2024-02-21T09:12:49;6.13;;;1.77;;
71196;SDS011;58918;51.652;4.864;2024-02-21T09:15:16;5.25;;;1.63;;
71196;SDS011;58918;51.652;4.864;2024-02-21T09:17:44;6.13;;;1.80;;
71196;SDS011;58918;51.652;4.864;2024-02-21T09:20:17;6.38;;;1.67;;
71196;SDS011;58918;51.652;4.864;2024-02-21T09:22:44;5.50;;;1.60;;
71196;SDS011;58918;51.652;4.864;2024-02-21T09:25:12;5.72;;;1.63;;
71196;SDS011;58918;51.652;4.864;2024-02-21T09:27:40;5.90;;;1.80;;
71196;SDS011;58918;51.652;4.864;2024-02-21T09:30:07;5.75;;;1.55;;
71196;SDS011;58918;51.652;4.864;2024-02-21T09:32:35;6.50;;;1.77;;
71196;SDS011;58918;51.652;4.864;2024-02-21T09:35:04;5.03;;;1.70;;
71196;SDS011;58918;51.652;4.864;2024-02-21T09:37:31;7.03;;;1.55;;
71196;SDS011;58918;51.652;4.864;2024-02-21T09:39:59;6.28;;;1.58;;
71196;SDS011;58918;51.652;4.864;2024-02-21T09:45:08;4.80;;;1.83;;
71196;SDS011;58918;51.652;4.864;2024-02-21T09:50:09;7.00;;;2.03;;
71196;SDS011;58918;51.652;4.864;2024-02-21T09:52:37;4.47;;;1.52;;
71196;SDS011;58918;51.652;4.864;2024-02-21T09:55:04;5.32;;;1.75;;
71196;SDS011;58918;51.652;4.864;2024-02-21T09:57:32;6.65;;;1.70;;
71196;SDS011;58918;51.652;4.864;2024-02-21T10:00:00;5.60;;;1.60;;
71196;SDS011;58918;51.652;4.864;2024-02-21T10:02:33;5.00;;;1.65;;
71196;SDS011;58918;51.652;4.864;2024-02-21T10:05:01;4.25;;;1.52;;
71196;SDS011;58918;51.652;4.864;2024-02-21T10:07:31;7.00;;;1.63;;
71196;SDS011;58918;51.652;4.864;2024-02-21T10:10:02;4.03;;;1.65;;
71196;SDS011;58918;51.652;4.864;2024-02-21T10:12:30;5.57;;;1.67;;
71196;SDS011;58918;51.652;4.864;2024-02-21T10:15:04;6.10;;;1.42;;
71196;SDS011;58918;51.652;4.864;2024-02-21T10:17:32;6.53;;;1.50;;
71196;SDS011;58918;51.652;4.864;2024-02-21T10:20:06;4.88;;;1.48;;
71196;SDS011;58918;51.652;4.864;2024-02-21T10:22:35;5.45;;;1.52;;
71196;SDS011;58918;51.652;4.864;2024-02-21T10:25:09;5.78;;;1.50;;
71196;SDS011;58918;51.652;4.864;2024-02-21T10:27:37;7.68;;;1.70;;
71196;SDS011;58918;51.652;4.864;2024-02-21T10:30:07;5.22;;;1.40;;
71196;SDS011;58918;51.652;4.864;2024-02-21T10:32:47;5.57;;;1.45;;
71196;SDS011;58918;51.652;4.864;2024-02-21T10:35:15;6.40;;;2.25;;
71196;SDS011;58918;51.652;4.864;2024-02-21T10:37:52;5.18;;;1.42;;
71196;SDS011;58918;51.652;4.864;2024-02-21T10:40:25;6.28;;;1.77;;
71196;SDS011;58918;51.652;4.864;2024-02-21T10:42:59;5.07;;;1.65;;
71196;SDS011;58918;51.652;4.864;2024-02-21T10:45:30;3.72;;;1.58;;
71196;SDS011;58918;51.652;4.864;2024-02-21T10:48:01;4.35;;;1.38;;
71196;SDS011;58918;51.652;4.864;2024-02-21T10:50:33;4.85;;;1.40;;
71196;SDS011;58918;51.652;4.864;2024-02-21T10:56:16;4.00;;;1.40;;
71196;SDS011;58918;51.652;4.864;2024-02-21T10:58:39;4.45;;;1.60;;
71196;SDS011;58918;51.652;4.864;2024-02-21T11:01:08;4.25;;;1.42;;
71196;SDS011;58918;51.652;4.864;2024-02-21T11:03:36;5.25;;;1.63;;
71196;SDS011;58918;51.652;4.864;2024-02-21T11:06:04;4.93;;;1.52;;
71196;SDS011;58918;51.652;4.864;2024-02-21T11:08:31;4.45;;;1.77;;
71196;SDS011;58918;51.652;4.864;2024-02-21T11:10:58;3.88;;;1.30;;
71196;SDS011;58918;51.652;4.864;2024-02-21T11:13:30;3.33;;;1.30;;
71196;SDS011;58918;51.652;4.864;2024-02-21T11:16:09;6.00;;;1.65;;
71196;SDS011;58918;51.652;4.864;2024-02-21T11:18:37;4.40;;;1.73;;
71196;SDS011;58918;51.652;4.864;2024-02-21T11:21:04;4.63;;;1.35;;
71196;SDS011;58918;51.652;4.864;2024-02-21T11:23:32;4.35;;;1.30;;
71196;SDS011;58918;51.652;4.864;2024-02-21T11:26:09;3.88;;;1.20;;
71196;SDS011;58918;51.652;4.864;2024-02-21T11:28:36;6.03;;;1.70;;
71196;SDS011;58918;51.652;4.864;2024-02-21T11:31:06;4.35;;;1.35;;
71196;SDS011;58918;51.652;4.864;2024-02-21T11:33:34;3.08;;;1.10;;
71196;SDS011;58918;51.652;4.864;2024-02-21T11:36:05;4.85;;;1.30;;
71196;SDS011;58918;51.652;4.864;2024-02-21T11:38:33;4.63;;;1.42;;
71196;SDS011;58918;51.652;4.864;2024-02-21T11:41:00;5.20;;;1.50;;
71196;SDS011;58918;51.652;4.864;2024-02-21T11:43:28;3.88;;;1.10;;
71196;SDS011;58918;51.652;4.864;2024-02-21T11:46:01;3.88;;;1.50;;
71196;SDS011;58918;51.652;4.864;2024-02-21T11:48:30;4.55;;;1.55;;
71196;SDS011;58918;51.652;4.864;2024-02-21T11:50:58;4.28;;;1.17;;
71196;SDS011;58918;51.652;4.864;2024-02-21T11:53:27;3.55;;;1.33;;
71196;SDS011;58918;51.652;4.864;2024-02-21T11:56:01;4.82;;;1.77;;
71196;SDS011;58918;51.652;4.864;2024-02-21T11:58:29;4.80;;;1.50;;
71196;SDS011;58918;51.652;4.864;2024-02-21T12:00:57;4.68;;;1.38;;
71196;SDS011;58918;51.652;4.864;2024-02-21T12:03:24;4.50;;;1.27;;
71196;SDS011;58918;51.652;4.864;2024-02-21T12:05:53;3.63;;;1.33;;
71196;SDS011;58918;51.652;4.864;2024-02-21T12:08:23;3.90;;;1.25;;
71196;SDS011;58918;51.652;4.864;2024-02-21T12:10:50;4.35;;;1.20;;
71196;SDS011;58918;51.652;4.864;2024-02-21T12:13:18;3.72;;;1.52;;
71196;SDS011;58918;51.652;4.864;2024-02-21T12:15:49;4.10;;;1.23;;
71196;SDS011;58918;51.652;4.864;2024-02-21T12:18:17;3.30;;;1.23;;
71196;SDS011;58918;51.652;4.864;2024-02-21T12:20:44;3.42;;;1.20;;
71196;SDS011;58918;51.652;4.864;2024-02-21T12:23:14;3.65;;;1.20;;
71196;SDS011;58918;51.652;4.864;2024-02-21T12:25:42;4.03;;;1.10;;
71196;SDS011;58918;51.652;4.864;2024-02-21T12:28:10;3.72;;;1.20;;
71196;SDS011;58918;51.652;4.864;2024-02-21T12:30:37;2.92;;;1.13;;
71196;SDS011;58918;51.652;4.864;2024-02-21T12:33:07;3.35;;;1.45;;
71196;SDS011;58918;51.652;4.864;2024-02-21T12:35:34;4.03;;;1.40;;
71196;SDS011;58918;51.652;4.864;2024-02-21T12:38:02;4.30;;;1.52;;
71196;SDS011;58918;51.652;4.864;2024-02-21T12:40:29;3.17;;;1.00;;
71196;SDS011;58918;51.652;4.864;2024-02-21T12:43:00;4.25;;;1.30;;
71196;SDS011;58918;51.652;4.864;2024-02-21T12:45:31;2.95;;;1.05;;
71196;SDS011;58918;51.652;4.864;2024-02-21T12:47:59;3.47;;;1.30;;
71196;SDS011;58918;51.652;4.864;2024-02-21T12:50:27;3.03;;;1.10;;
71196;SDS011;58918;51.652;4.864;2024-02-21T12:52:54;3.38;;;1.08;;
71196;SDS011;58918;51.652;4.864;2024-02-21T12:55:21;3.88;;;1.00;;
71196;SDS011;58918;51.652;4.864;2024-02-21T12:57:49;4.20;;;1.30;;
71196;SDS011;58918;51.652;4.864;2024-02-21T13:00:16;3.95;;;0.95;;
71196;SDS011;58918;51.652;4.864;2024-02-21T13:02:43;3.33;;;1.00;;
71196;SDS011;58918;51.652;4.864;2024-02-21T13:05:12;3.63;;;1.25;;
71196;SDS011;58918;51.652;4.864;2024-02-21T13:07:40;3.50;;;1.10;;
71196;SDS011;58918;51.652;4.864;2024-02-21T13:10:07;3.15;;;1.02;;
71196;SDS011;58918;51.652;4.864;2024-02-21T13:12:35;3.72;;;1.10;;
71196;SDS011;58918;51.652;4.864;2024-02-21T13:15:03;4.00;;;1.38;;
71196;SDS011;58918;51.652;4.864;2024-02-21T13:17:31;3.58;;;1.27;;
71196;SDS011;58918;51.652;4.864;2024-02-21T13:19:58;3.75;;;1.27;;
71196;SDS011;58918;51.652;4.864;2024-02-21T13:22:27;3.55;;;1.20;;
71196;SDS011;58918;51.652;4.864;2024-02-21T13:24:54;3.05;;;1.20;;
71196;SDS011;58918;51.652;4.864;2024-02-21T13:27:23;4.20;;;1.20;;
71196;SDS011;58918;51.652;4.864;2024-02-21T13:29:51;3.22;;;1.33;;
71196;SDS011;58918;51.652;4.864;2024-02-21T13:32:19;4.60;;;1.00;;
71196;SDS011;58918;51.652;4.864;2024-02-21T13:34:50;3.67;;;1.00;;
71196;SDS011;58918;51.652;4.864;2024-02-21T13:37:20;3.95;;;1.05;;
71196;SDS011;58918;51.652;4.864;2024-02-21T13:39:48;2.33;;;0.80;;
71196;SDS011;58918;51.652;4.864;2024-02-21T13:42:16;2.90;;;0.95;;
71196;SDS011;58918;51.652;4.864;2024-02-21T13:44:43;3.33;;;1.05;;
71196;SDS011;58918;51.652;4.864;2024-02-21T13:47:12;5.25;;;1.40;;
71196;SDS011;58918;51.652;4.864;2024-02-21T13:49:41;4.97;;;1.13;;
71196;SDS011;58918;51.652;4.864;2024-02-21T13:52:08;3.08;;;1.13;;
71196;SDS011;58918;51.652;4.864;2024-02-21T13:54:36;4.38;;;1.40;;
71196;SDS011;58918;51.652;4.864;2024-02-21T13:57:03;4.45;;;1.30;;
71196;SDS011;58918;51.652;4.864;2024-02-21T13:59:31;3.65;;;1.35;;
71196;SDS011;58918;51.652;4.864;2024-02-21T14:02:00;3.65;;;1.13;;
71196;SDS011;58918;51.652;4.864;2024-02-21T14:04:27;5.50;;;1.30;;
71196;SDS011;58918;51.652;4.864;2024-02-21T14:06:56;3.47;;;0.90;;
71196;SDS011;58918;51.652;4.864;2024-02-21T14:09:24;3.10;;;1.23;;
71196;SDS011;58918;51.652;4.864;2024-02-21T14:11:51;2.72;;;1.02;;
71196;SDS011;58918;51.652;4.864;2024-02-21T14:14:19;3.53;;;1.27;;
71196;SDS011;58918;51.652;4.864;2024-02-21T14:16:47;4.00;;;1.40;;
71196;SDS011;58918;51.652;4.864;2024-02-21T14:19:15;3.35;;;0.93;;
71196;SDS011;58918;51.652;4.864;2024-02-21T14:21:42;5.72;;;1.40;;
71196;SDS011;58918;51.652;4.864;2024-02-21T14:24:11;5.32;;;1.35;;
71196;SDS011;58918;51.652;4.864;2024-02-21T14:26:39;3.80;;;1.30;;
71196;SDS011;58918;51.652;4.864;2024-02-21T14:29:07;3.20;;;1.20;;
71196;SDS011;58918;51.652;4.864;2024-02-21T14:31:35;3.40;;;0.90;;
71196;SDS011;58918;51.652;4.864;2024-02-21T14:34:02;3.20;;;0.95;;
71196;SDS011;58918;51.652;4.864;2024-02-21T14:36:29;3.08;;;1.25;;
71196;SDS011;58918;51.652;4.864;2024-02-21T14:38:57;4.95;;;1.40;;
71196;SDS011;58918;51.652;4.864;2024-02-21T14:41:25;3.33;;;1.35;;
71196;SDS011;58918;51.652;4.864;2024-02-21T14:43:54;4.00;;;1.25;;
71196;SDS011;58918;51.652;4.864;2024-02-21T14:46:30;3.70;;;1.30;;
71196;SDS011;58918;51.652;4.864;2024-02-21T14:48:57;4.65;;;1.25;;
71196;SDS011;58918;51.652;4.864;2024-02-21T14:51:25;2.78;;;1.10;;
71196;SDS011;58918;51.652;4.864;2024-02-21T14:53:52;4.85;;;1.30;;
71196;SDS011;58918;51.652;4.864;2024-02-21T14:56:22;3.75;;;1.10;;
71196;SDS011;58918;51.652;4.864;2024-02-21T14:58:50;3.83;;;0.90;;
71196;SDS011;58918;51.652;4.864;2024-02-21T15:01:22;3.67;;;1.08;;
71196;SDS011;58918;51.652;4.864;2024-02-21T15:03:50;6.18;;;1.33;;
71196;SDS011;58918;51.652;4.864;2024-02-21T15:06:17;3.15;;;1.00;;
71196;SDS011;58918;51.652;4.864;2024-02-21T15:08:45;3.75;;;1.08;;
71196;SDS011;58918;51.652;4.864;2024-02-21T15:11:12;3.47;;;1.10;;